createdAt,value
2018-07-16T00:00:31.878Z,93.34
2018-07-16T00:02:59.145Z,93.46
2018-07-16T00:05:26.305Z,93.85
2018-07-16T00:07:53.831Z,93.72
2018-07-16T00:10:20.998Z,94.20
2018-07-16T00:12:48.155Z,94.26
2018-07-16T00:15:15.351Z,94.62
2018-07-16T00:17:42.473Z,94.57
2018-07-16T00:20:09.581Z,94.79
2018-07-16T00:22:36.707Z,94.41
2018-07-16T00:25:03.840Z,94.53
2018-07-16T00:27:35.718Z,94.86
2018-07-16T00:30:04.214Z,94.83
2018-07-16T00:32:31.344Z,95.38
2018-07-16T00:34:58.484Z,95.32
2018-07-16T00:37:25.745Z,95.09
2018-07-16T00:39:52.843Z,95.29
2018-07-16T00:42:19.997Z,95.88
2018-07-16T00:44:47.209Z,95.75
2018-07-16T00:47:14.344Z,95.39
2018-07-16T00:49:41.438Z,95.37
2018-07-16T00:52:08.677Z,95.87
2018-07-16T00:54:35.789Z,96.10
2018-07-16T00:57:02.900Z,95.62
2018-07-16T00:59:30.109Z,95.90
2018-07-16T01:01:57.285Z,95.79
2018-07-16T01:04:24.411Z,95.84
2018-07-16T01:06:51.752Z,95.31
2018-07-16T01:09:18.885Z,95.08
2018-07-16T01:11:45.975Z,95.35
2018-07-16T01:14:13.160Z,95.81
2018-07-16T01:16:41.171Z,96.17
2018-07-16T01:19:09.871Z,95.81
2018-07-16T01:21:37.123Z,95.99
2018-07-16T01:24:04.304Z,95.71
2018-07-16T01:26:31.448Z,96.45
2018-07-16T01:28:59.644Z,96.40
2018-07-16T01:31:26.755Z,96.40
2018-07-16T01:33:54.130Z,96.39
2018-07-16T01:36:21.343Z,96.59
2018-07-16T01:38:48.656Z,95.91
2018-07-16T01:41:15.746Z,95.85
2018-07-16T01:43:42.904Z,96.08
2018-07-16T01:46:09.985Z,96.57
2018-07-16T01:48:37.107Z,96.59
2018-07-16T01:51:04.356Z,96.91
2018-07-16T01:53:31.447Z,96.27
2018-07-16T01:55:58.699Z,96.38
2018-07-16T01:58:25.969Z,96.41
2018-07-16T02:00:56.741Z,96.95
2018-07-16T02:03:28.543Z,96.98
2018-07-16T02:05:55.857Z,97.22
2018-07-16T02:08:23.813Z,97.31
2018-07-16T02:10:51.429Z,97.14
2018-07-16T02:13:18.704Z,97.82
2018-07-16T02:15:45.887Z,96.98
2018-07-16T02:18:13.908Z,97.94
2018-07-16T02:20:41.347Z,97.58
2018-07-16T02:23:08.452Z,97.73
2018-07-16T02:25:35.704Z,97.49
2018-07-16T02:28:02.832Z,97.63
2018-07-16T02:30:29.976Z,97.86
2018-07-16T02:32:57.807Z,98.53
2018-07-16T02:35:24.932Z,98.58
2018-07-16T02:37:53.089Z,98.69
2018-07-16T02:40:20.354Z,99.05
2018-07-16T02:42:48.372Z,98.68
2018-07-16T02:45:15.499Z,98.91
2018-07-16T02:47:42.682Z,98.01
2018-07-16T02:50:09.778Z,98.44
2018-07-16T02:52:36.876Z,98.05
2018-07-16T02:55:04.133Z,98.12
2018-07-16T02:57:31.552Z,98.92
2018-07-16T02:59:58.709Z,98.20
2018-07-16T03:02:25.970Z,98.67
2018-07-16T03:04:53.072Z,98.51
2018-07-16T03:07:20.227Z,98.82
2018-07-16T03:09:47.517Z,98.64
2018-07-16T03:12:14.657Z,98.33
2018-07-16T03:14:41.788Z,98.09
2018-07-16T03:17:09.637Z,98.29
2018-07-16T03:19:36.784Z,98.55
2018-07-16T03:22:03.959Z,98.88
2018-07-16T03:24:31.775Z,99.31
2018-07-16T03:26:59.833Z,99.46
2018-07-16T03:29:27.835Z,99.76
2018-07-16T03:31:55.242Z,99.77
2018-07-16T03:34:22.384Z,100.00
2018-07-16T03:36:49.524Z,100.00
2018-07-16T03:39:16.754Z,100.00
2018-07-16T03:41:43.863Z,99.92
2018-07-16T03:44:10.986Z,100.00
2018-07-16T03:46:38.250Z,100.00
2018-07-16T03:49:05.402Z,100.00
2018-07-16T03:51:32.522Z,99.96
2018-07-16T03:53:59.812Z,100.00
2018-07-16T03:56:26.971Z,100.00
2018-07-16T03:58:54.143Z,100.00
2018-07-16T04:01:21.404Z,100.00
2018-07-16T04:03:48.484Z,100.00
2018-07-16T04:06:15.666Z,100.00
2018-07-16T04:08:42.852Z,100.00
2018-07-16T04:11:10.015Z,100.00
2018-07-16T04:13:37.106Z,100.00
2018-07-16T04:16:04.343Z,100.00
2018-07-16T04:18:31.464Z,100.00
2018-07-16T04:20:58.875Z,100.00
2018-07-16T04:23:26.167Z,100.00
2018-07-16T04:25:53.288Z,100.00
2018-07-16T04:28:20.387Z,100.00
2018-07-16T04:30:47.666Z,100.00
2018-07-16T04:33:14.798Z,100.00
2018-07-16T04:35:41.883Z,100.00
2018-07-16T04:38:09.125Z,100.00
2018-07-16T04:40:36.239Z,100.00
2018-07-16T04:43:04.149Z,100.00
2018-07-16T04:45:31.499Z,100.00
2018-07-16T04:47:59.794Z,100.00
2018-07-16T04:50:27.954Z,100.00
2018-07-16T04:52:55.385Z,100.00
2018-07-16T04:55:22.549Z,100.00
2018-07-16T04:57:50.910Z,99.56
2018-07-16T05:00:19.070Z,100.00
2018-07-16T05:02:46.584Z,100.00
2018-07-16T05:05:18.123Z,100.00
2018-07-16T05:07:47.409Z,100.00
2018-07-16T05:10:15.132Z,100.00
2018-07-16T05:12:42.461Z,100.00
2018-07-16T05:15:11.649Z,100.00
2018-07-16T05:17:41.177Z,100.00
2018-07-16T05:20:08.597Z,98.98
2018-07-16T05:22:36.551Z,96.89
2018-07-16T05:25:05.013Z,97.34
2018-07-16T05:27:33.589Z,96.57
2018-07-16T05:30:02.661Z,95.78
2018-07-16T05:32:32.238Z,95.20
2018-07-16T05:35:01.755Z,86.57
2018-07-16T05:37:31.283Z,87.77
2018-07-16T05:39:59.545Z,88.09
2018-07-16T05:42:29.379Z,91.18
2018-07-16T05:45:00.501Z,87.74
2018-07-16T05:47:32.190Z,87.15
2018-07-16T05:50:01.065Z,87.25
2018-07-16T05:52:30.545Z,88.20
2018-07-16T05:54:59.682Z,86.36
2018-07-16T05:57:29.179Z,80.21
2018-07-16T06:00:00.238Z,80.93
2018-07-16T06:02:29.833Z,80.58
2018-07-16T06:04:59.298Z,77.86
2018-07-16T06:07:27.933Z,77.33
2018-07-16T06:09:59.216Z,76.95
2018-07-16T06:12:30.539Z,77.55
2018-07-16T06:14:59.506Z,78.22
2018-07-16T06:17:27.358Z,74.72
2018-07-16T06:19:54.557Z,74.92
2018-07-16T06:39:37.470Z,71.13
2018-07-16T06:42:05.249Z,67.34
2018-07-16T06:44:34.061Z,68.41
2018-07-16T06:47:01.358Z,67.20
2018-07-16T06:49:28.656Z,66.91
2018-07-16T06:51:55.802Z,67.48
2018-07-16T07:11:37.669Z,67.40
2018-07-16T07:14:05.361Z,65.43
2018-07-16T07:16:32.748Z,67.75
2018-07-16T07:18:59.934Z,65.31
2018-07-16T07:21:27.085Z,63.87
2018-07-16T07:32:32.872Z,58.97
2018-07-16T07:35:00.181Z,59.15
2018-07-16T07:37:27.309Z,58.77
2018-07-16T07:39:54.568Z,58.41
2018-07-16T07:42:21.803Z,56.33
2018-07-16T07:44:49.209Z,61.31
2018-07-16T07:47:16.847Z,57.54
2018-07-16T07:49:44.496Z,55.85
2018-07-16T07:52:13.348Z,54.17
2018-07-16T07:54:41.298Z,54.44
2018-07-16T07:57:08.279Z,54.40
2018-07-16T07:59:35.370Z,55.88
2018-07-16T08:02:02.687Z,53.73
2018-07-16T08:04:29.934Z,52.99
2018-07-16T08:07:02.833Z,53.38
2018-07-16T08:09:30.017Z,53.87
2018-07-16T08:11:57.265Z,54.64
2018-07-16T08:14:24.419Z,53.02
2018-07-16T08:16:51.709Z,53.64
2018-07-16T08:19:19.009Z,54.31
2018-07-16T08:21:46.289Z,56.60
2018-07-16T08:24:13.665Z,52.92
2018-07-16T08:26:40.868Z,50.38
2018-07-16T08:29:08.085Z,51.37
2018-07-16T08:31:35.367Z,50.69
2018-07-16T08:34:02.511Z,54.67
2018-07-16T08:36:29.706Z,51.33
2018-07-16T08:38:57.155Z,49.81
2018-07-16T08:41:24.835Z,50.15
2018-07-16T08:43:52.017Z,55.02
2018-07-16T08:46:19.308Z,53.23
2018-07-16T08:48:46.429Z,46.93
2018-07-16T08:51:13.587Z,47.30
2018-07-16T08:53:40.912Z,46.78
2018-07-16T08:56:08.236Z,46.75
2018-07-16T08:58:35.542Z,47.36
2018-07-16T09:01:02.946Z,50.05
2018-07-16T09:03:30.121Z,52.02
2018-07-16T09:06:04.330Z,48.34
2018-07-16T09:08:33.829Z,45.76
2018-07-16T09:11:01.150Z,46.59
2018-07-16T09:13:28.335Z,45.05
2018-07-16T09:15:55.496Z,43.62
2018-07-16T09:18:22.757Z,43.50
2018-07-16T09:20:49.989Z,44.28
2018-07-16T09:23:17.280Z,43.46
2018-07-16T09:25:49.012Z,41.99
2018-07-16T09:28:16.201Z,41.23
2018-07-16T09:30:43.405Z,44.21
2018-07-16T09:33:10.884Z,45.29
2018-07-16T09:35:38.075Z,41.67
2018-07-16T09:38:05.450Z,40.44
2018-07-16T09:40:32.752Z,40.07
2018-07-16T09:42:59.913Z,40.82
2018-07-16T09:45:27.081Z,39.72
2018-07-16T09:47:54.290Z,43.16
2018-07-16T09:50:21.395Z,45.25
2018-07-16T09:52:48.589Z,38.60
2018-07-16T09:55:15.959Z,40.00
2018-07-16T09:57:43.127Z,40.03
2018-07-16T10:00:10.353Z,42.03
2018-07-16T10:02:37.693Z,38.94
2018-07-16T10:05:05.854Z,41.95
2018-07-16T10:07:33.323Z,38.95
2018-07-16T10:10:00.492Z,38.27
2018-07-16T10:12:27.620Z,38.10
2018-07-16T10:14:54.799Z,38.57
2018-07-16T10:17:21.997Z,42.35
2018-07-16T10:19:49.340Z,43.07
2018-07-16T10:22:16.464Z,39.46
2018-07-16T10:24:43.802Z,36.12
2018-07-16T10:27:11.417Z,38.59
2018-07-16T10:29:38.818Z,41.37
2018-07-16T10:32:06.865Z,36.13
2018-07-16T10:34:34.468Z,32.45
2018-07-16T10:37:01.620Z,36.76
2018-07-16T10:39:28.903Z,34.53
2018-07-16T10:41:56.104Z,35.18
2018-07-16T10:44:23.193Z,36.30
2018-07-16T10:46:50.449Z,34.63
2018-07-16T10:49:17.652Z,41.06
2018-07-16T10:51:45.394Z,35.76
2018-07-16T10:54:12.780Z,34.66
2018-07-16T10:56:40.165Z,32.19
2018-07-16T10:59:07.377Z,32.15
2018-07-16T11:01:35.937Z,30.62
2018-07-16T11:04:03.653Z,30.95
2018-07-16T11:06:30.965Z,32.55
2018-07-16T11:08:58.209Z,31.63
2018-07-16T11:11:25.363Z,36.88
2018-07-16T11:13:52.502Z,30.74
2018-07-16T11:16:19.958Z,37.29
2018-07-16T11:18:47.809Z,30.82
2018-07-16T11:21:15.155Z,31.68
2018-07-16T11:23:42.628Z,29.09
2018-07-16T11:26:09.767Z,32.21
2018-07-16T11:28:36.917Z,35.33
2018-07-16T11:31:04.396Z,34.58
2018-07-16T11:33:31.574Z,26.37
2018-07-16T11:35:58.809Z,27.50
2018-07-16T11:38:27.232Z,36.35
2018-07-16T11:40:54.335Z,34.26
2018-07-16T11:43:21.530Z,25.66
2018-07-16T11:45:48.976Z,26.06
2018-07-16T11:48:16.612Z,28.14
2018-07-16T11:50:44.124Z,25.85
2018-07-16T11:53:11.412Z,26.39
2018-07-16T11:55:38.648Z,28.63
2018-07-16T11:58:05.796Z,27.42
2018-07-16T12:00:33.100Z,25.92
2018-07-16T12:03:00.226Z,25.11
2018-07-16T12:05:27.412Z,23.83
2018-07-16T12:07:55.009Z,22.28
2018-07-16T12:10:22.318Z,24.42
2018-07-16T12:12:49.563Z,23.93
2018-07-16T12:15:16.744Z,26.38
2018-07-16T12:17:44.041Z,24.00
2018-07-16T12:20:11.175Z,27.97
2018-07-16T12:22:38.405Z,27.67
2018-07-16T12:25:05.911Z,29.89
2018-07-16T12:27:33.118Z,30.03
2018-07-16T12:30:00.454Z,32.54
2018-07-16T12:32:30.490Z,32.87
2018-07-16T12:34:57.787Z,35.21
2018-07-16T12:37:25.499Z,34.41
2018-07-16T12:39:52.673Z,29.94
2018-07-16T12:42:20.214Z,30.98
2018-07-16T12:44:47.366Z,29.98
2018-07-16T12:47:14.724Z,30.46
2018-07-16T12:49:42.002Z,30.88
2018-07-16T12:52:09.266Z,33.05
2018-07-16T12:54:36.541Z,34.71
2018-07-16T12:57:03.881Z,35.23
2018-07-16T12:59:31.329Z,33.97
2018-07-16T13:01:59.307Z,33.31
2018-07-16T13:04:26.674Z,32.00
2018-07-16T13:06:54.423Z,32.48
2018-07-16T13:09:21.868Z,36.55
2018-07-16T13:11:49.360Z,35.54
2018-07-16T13:14:17.651Z,36.03
2018-07-16T13:16:44.893Z,39.85
2018-07-16T13:19:12.025Z,34.83
2018-07-16T13:21:39.294Z,31.39
2018-07-16T13:24:06.517Z,33.28
2018-07-16T13:26:33.738Z,32.83
2018-07-16T13:29:00.885Z,31.30
2018-07-16T13:31:28.040Z,31.44
2018-07-16T13:33:55.437Z,32.35
2018-07-16T13:36:22.969Z,31.70
2018-07-16T13:38:50.567Z,32.08
2018-07-16T13:41:18.183Z,31.91
2018-07-16T13:43:45.413Z,30.65
2018-07-16T13:46:12.516Z,29.62
2018-07-16T13:48:39.648Z,31.49
2018-07-16T13:51:07.441Z,32.79
2018-07-16T13:53:34.567Z,32.54
2018-07-16T13:56:01.768Z,34.29
2018-07-16T13:58:28.925Z,30.74
2018-07-16T14:00:56.309Z,31.29
2018-07-16T14:03:23.777Z,31.21
2018-07-16T14:05:52.037Z,30.54
2018-07-16T14:08:19.697Z,29.00
2018-07-16T14:10:46.998Z,34.02
2018-07-16T14:13:14.795Z,29.04
2018-07-16T14:15:41.975Z,27.16
2018-07-16T14:18:09.091Z,32.16
2018-07-16T14:20:36.376Z,31.30
2018-07-16T14:23:04.196Z,29.96
2018-07-16T14:25:31.382Z,30.56
2018-07-16T14:27:58.854Z,30.70
2018-07-16T14:30:26.190Z,30.14
2018-07-16T14:32:53.669Z,28.52
2018-07-16T14:35:21.320Z,28.53
2018-07-16T14:37:48.934Z,31.54
2018-07-16T14:40:16.332Z,31.33
2018-07-16T14:42:43.906Z,31.29
2018-07-16T14:45:11.040Z,29.53
2018-07-16T14:47:38.192Z,31.42
2018-07-16T14:50:05.372Z,28.44
2018-07-16T14:52:32.640Z,29.07
2018-07-16T14:54:59.967Z,29.98
2018-07-16T14:57:27.365Z,28.53
2018-07-16T14:59:54.603Z,25.81
2018-07-16T15:02:22.112Z,30.65
2018-07-16T15:04:49.852Z,25.63
2018-07-16T15:07:17.070Z,25.44
2018-07-16T15:09:44.284Z,27.37
2018-07-16T15:12:12.352Z,32.77
2018-07-16T15:14:41.603Z,24.05
2018-07-16T15:17:08.880Z,20.06
2018-07-16T15:19:36.358Z,17.57
2018-07-16T15:22:03.509Z,16.36
2018-07-16T15:24:30.615Z,16.07
2018-07-16T15:26:58.728Z,16.50
2018-07-16T15:29:26.118Z,14.42
2018-07-16T15:31:53.513Z,12.02
2018-07-16T15:34:21.101Z,15.40
2018-07-16T15:36:48.698Z,13.03
2018-07-16T15:39:15.836Z,16.71
2018-07-16T15:41:43.065Z,17.49
2018-07-16T15:44:10.178Z,15.98
2018-07-16T15:46:37.301Z,14.24
2018-07-16T15:49:04.500Z,15.19
2018-07-16T15:51:31.605Z,12.60
2018-07-16T15:53:59.248Z,13.73
2018-07-16T15:56:26.976Z,15.78
2018-07-16T15:58:54.319Z,18.19
2018-07-16T16:01:21.499Z,21.20
2018-07-16T16:03:48.992Z,23.00
2018-07-16T16:06:16.268Z,24.71
2018-07-16T16:08:43.425Z,23.73
2018-07-16T16:11:10.620Z,26.87
2018-07-16T16:13:37.896Z,28.43
2018-07-16T16:16:05.166Z,28.54
2018-07-16T16:18:32.351Z,28.90
2018-07-16T16:20:59.530Z,28.40
2018-07-16T16:23:26.861Z,30.70
2018-07-16T16:25:54.335Z,34.04
2018-07-16T16:28:21.741Z,32.75
2018-07-16T16:30:49.579Z,32.83
2018-07-16T16:33:16.978Z,32.66
2018-07-16T16:35:44.273Z,32.56
2018-07-16T16:38:11.433Z,33.72
2018-07-16T16:40:38.750Z,32.24
2018-07-16T16:43:06.054Z,29.85
2018-07-16T16:45:33.355Z,30.17
2018-07-16T16:48:00.895Z,30.93
2018-07-16T16:50:28.225Z,32.82
2018-07-16T16:52:55.636Z,30.93
2018-07-16T16:55:23.140Z,31.39
2018-07-16T16:57:50.661Z,33.08
2018-07-16T17:00:18.374Z,34.37
2018-07-16T17:02:45.595Z,33.39
2018-07-16T17:05:12.756Z,36.62
2018-07-16T17:07:40.103Z,38.77
2018-07-16T17:10:07.564Z,35.60
2018-07-16T17:12:34.688Z,37.41
2018-07-16T17:15:01.884Z,36.02
2018-07-16T17:17:29.468Z,36.50
2018-07-16T17:19:57.252Z,36.01
2018-07-16T17:22:24.616Z,34.56
2018-07-16T17:24:52.190Z,38.84
2018-07-16T17:27:19.877Z,36.93
2018-07-16T17:29:47.159Z,38.21
2018-07-16T17:32:14.477Z,39.70
2018-07-16T17:34:41.636Z,41.08
2018-07-16T17:37:10.245Z,39.90
2018-07-16T17:39:37.520Z,40.19
2018-07-16T17:42:04.699Z,42.26
2018-07-16T17:44:31.919Z,42.90
2018-07-16T17:46:59.528Z,41.25
2018-07-16T17:49:26.723Z,39.77
2018-07-16T17:51:54.046Z,44.17
2018-07-16T17:54:21.223Z,45.17
2018-07-16T17:56:48.431Z,47.31
2018-07-16T17:59:15.555Z,47.74
2018-07-16T18:01:44.832Z,47.56
2018-07-16T18:04:12.071Z,47.72
2018-07-16T18:06:39.502Z,49.18
2018-07-16T18:09:08.269Z,51.04
2018-07-16T18:11:36.661Z,51.66
2018-07-16T18:14:04.088Z,53.28
2018-07-16T18:16:31.883Z,52.84
2018-07-16T18:19:00.077Z,54.06
2018-07-16T18:21:27.360Z,56.40
2018-07-16T18:23:54.621Z,56.82
2018-07-16T18:26:21.822Z,55.38
2018-07-16T18:28:49.108Z,56.50
2018-07-16T18:31:17.929Z,57.58
2018-07-16T18:33:45.107Z,58.79
2018-07-16T18:36:12.810Z,59.39
2018-07-16T18:38:40.517Z,57.88
2018-07-16T18:41:08.064Z,60.20
2018-07-16T18:43:35.393Z,60.32
2018-07-16T18:46:02.640Z,59.01
2018-07-16T18:48:29.803Z,61.08
2018-07-16T18:50:56.960Z,62.18
2018-07-16T18:53:24.267Z,60.57
2018-07-16T18:55:51.519Z,61.30
2018-07-16T18:58:19.001Z,61.04
2018-07-16T19:00:46.421Z,62.31
2018-07-16T19:03:13.803Z,64.90
2018-07-16T19:05:41.437Z,64.49
2018-07-16T19:08:09.590Z,64.70
2018-07-16T19:10:36.750Z,64.44
2018-07-16T19:13:03.905Z,63.53
2018-07-16T19:15:31.108Z,65.14
2018-07-16T19:17:58.353Z,66.16
2018-07-16T19:20:26.698Z,67.15
2018-07-16T19:22:53.906Z,66.96
2018-07-16T19:25:21.057Z,67.15
2018-07-16T19:27:48.346Z,67.80
2018-07-16T19:30:16.339Z,64.31
2018-07-16T19:32:44.206Z,60.22
2018-07-16T19:35:11.957Z,60.40
2018-07-16T19:37:40.050Z,59.99
2018-07-16T19:40:08.582Z,58.88
2018-07-16T19:42:35.722Z,59.70
2018-07-16T19:45:06.812Z,59.70
2018-07-16T19:47:34.189Z,60.36
2018-07-16T19:50:01.517Z,60.22
2018-07-16T19:52:28.800Z,60.07
2018-07-16T19:54:56.232Z,60.64
2018-07-16T19:57:23.942Z,60.27
2018-07-16T19:59:52.133Z,61.22
2018-07-16T20:02:19.674Z,61.61
2018-07-16T20:04:47.168Z,62.14
2018-07-16T20:07:14.583Z,61.69
2018-07-16T20:09:41.726Z,62.22
2018-07-16T20:12:13.493Z,63.28
2018-07-16T20:14:40.673Z,63.13
2018-07-16T20:17:07.811Z,63.64
2018-07-16T20:19:34.999Z,64.70
2018-07-16T20:22:02.189Z,66.58
2018-07-16T20:24:29.677Z,67.67
2018-07-16T20:26:57.053Z,67.62
2018-07-16T20:29:24.491Z,69.37
2018-07-16T20:31:52.265Z,68.60
2018-07-16T20:34:19.868Z,70.32
2018-07-16T20:36:47.237Z,69.95
2018-07-16T20:39:14.609Z,71.03
2018-07-16T20:41:48.317Z,72.47
2018-07-16T20:44:15.423Z,72.62
2018-07-16T20:46:42.566Z,73.75
2018-07-16T20:49:09.744Z,73.15
2018-07-16T20:51:37.293Z,72.74
2018-07-16T20:54:04.814Z,74.37
2018-07-16T20:56:32.947Z,75.62
2018-07-16T20:59:01.375Z,76.00
2018-07-16T21:01:28.871Z,76.77
2018-07-16T21:03:56.183Z,76.62
2018-07-16T21:06:23.358Z,77.59
2018-07-16T21:08:50.455Z,78.06
2018-07-16T21:11:17.803Z,75.74
2018-07-16T21:13:44.894Z,76.86
2018-07-16T21:16:12.078Z,77.86
2018-07-16T21:18:39.632Z,78.25
2018-07-16T21:21:06.881Z,79.45
2018-07-16T21:23:35.448Z,79.82
2018-07-16T21:26:02.968Z,80.76
2018-07-16T21:28:30.306Z,79.96
2018-07-16T21:30:57.444Z,80.29
2018-07-16T21:33:24.920Z,80.86
2018-07-16T21:35:52.179Z,81.92
2018-07-16T21:38:19.332Z,81.28
2018-07-16T21:40:46.650Z,80.74
2018-07-16T21:43:13.676Z,80.67
2018-07-16T21:45:40.774Z,80.80
2018-07-16T21:48:08.036Z,81.32
2018-07-16T21:50:36.152Z,81.08
2018-07-16T21:53:03.283Z,81.89
2018-07-16T21:55:30.477Z,82.88
2018-07-16T21:57:57.635Z,80.88
2018-07-16T22:00:27.334Z,82.24
2018-07-16T22:02:54.775Z,83.67
2018-07-16T22:05:22.484Z,83.79
2018-07-16T22:07:49.710Z,82.12
2018-07-16T22:10:16.989Z,83.52
2018-07-16T22:12:44.193Z,84.00
2018-07-16T22:15:15.717Z,84.02
2018-07-16T22:17:42.853Z,83.56
2018-07-16T22:20:09.945Z,84.79
2018-07-16T22:22:37.160Z,84.60
2018-07-16T22:25:04.394Z,85.73
2018-07-16T22:27:31.920Z,86.48
2018-07-16T22:29:59.010Z,86.40
2018-07-16T22:32:27.692Z,86.49
2018-07-16T22:34:54.789Z,86.64
2018-07-16T22:37:23.086Z,86.92
2018-07-16T22:39:50.307Z,86.11
2018-07-16T22:42:18.742Z,87.13
2018-07-16T22:44:45.948Z,88.20
2018-07-16T22:47:13.114Z,88.24
2018-07-16T22:49:40.428Z,87.85
2018-07-16T22:52:07.557Z,87.62
2018-07-16T22:54:34.710Z,87.71
2018-07-16T22:57:01.798Z,87.79
2018-07-16T22:59:28.900Z,88.14
2018-07-16T23:01:56.160Z,88.88
2018-07-16T23:04:23.295Z,88.96
2018-07-16T23:06:50.512Z,88.00
2018-07-16T23:09:18.601Z,87.54
2018-07-16T23:11:45.771Z,88.32
2018-07-16T23:14:12.947Z,88.03
2018-07-16T23:16:40.108Z,88.55
2018-07-16T23:19:07.205Z,89.86
2018-07-16T23:21:34.266Z,90.15
2018-07-16T23:24:01.407Z,89.57
2018-07-16T23:26:28.608Z,90.12
2018-07-16T23:28:55.817Z,90.26
2018-07-16T23:31:23.005Z,90.35
2018-07-16T23:33:50.260Z,91.01
2018-07-16T23:36:17.352Z,91.06
2018-07-16T23:38:44.590Z,90.73
2018-07-16T23:41:11.765Z,90.69
2018-07-16T23:43:38.850Z,90.95
2018-07-16T23:46:06.057Z,91.01
2018-07-16T23:48:33.184Z,90.58
2018-07-16T23:51:00.429Z,90.80
2018-07-16T23:53:27.622Z,91.14
2018-07-16T23:55:54.823Z,90.87
2018-07-16T23:58:22.827Z,90.88
